Time;durP1;ratioP1;P1;durP2;ratioP2;P2;SDS_P1;SDS_P2;PMS_P1;PMS_P2;Temp;Humidity;BMP_temperature;BMP_pressure;BME280_temperature;BME280_humidity;BME280_pressure;Samples;Min_cycle;Max_cycle;Signal;HPM_P1;HPM_P2
2022/04/26 03:37:22;;;;;;;3.85;1.70;;;;;;;10.46;57.31;94503.97;5130704;27;20102;-72
2022/04/26 03:39:47;;;;;;;4.45;1.70;;;;;;;10.42;57.62;94499.16;5131051;27;20027;-72
2022/04/26 03:42:13;;;;;;;5.22;1.58;;;;;;;10.41;57.44;94502.72;5133233;27;20031;-73
2022/04/26 03:44:38;;;;;;;2.95;1.45;;;;;;;10.36;57.70;94512.69;5130925;27;20027;-72
2022/04/26 03:47:04;;;;;;;3.42;1.60;;;;;;;10.28;57.94;94490.00;5114244;27;20526;-72
2022/04/26 03:49:30;;;;;;;3.22;1.70;;;;;;;10.36;57.86;94504.88;5132051;27;20151;-72
2022/04/26 03:51:55;;;;;;;6.13;1.90;;;;;;;10.29;58.13;94486.44;5133329;27;20030;-73
2022/04/26 03:54:21;;;;;;;4.30;1.48;;;;;;;10.37;57.82;94503.94;5132352;27;20034;-73
2022/04/26 03:56:46;;;;;;;4.85;1.60;;;;;;;10.39;58.08;94508.06;5097101;27;20515;-73
2022/04/26 03:59:12;;;;;;;4.97;1.60;;;;;;;10.39;57.94;94513.25;5133124;27;20035;-72
2022/04/26 04:01:37;;;;;;;5.25;1.92;;;;;;;10.41;57.82;94506.13;5131044;27;20517;-73
2022/04/26 04:04:03;;;;;;;4.25;1.80;;;;;;;10.41;58.23;94510.50;5132663;27;20134;-73
2022/04/26 04:06:28;;;;;;;5.15;1.58;;;;;;;10.21;58.50;94492.25;5129760;27;20034;-72
2022/04/26 04:08:54;;;;;;;3.10;1.50;;;;;;;10.34;58.57;94520.63;5132331;27;20024;-72
2022/04/26 04:11:19;;;;;;;8.23;1.70;;;;;;;10.44;58.16;94518.84;5130728;27;20015;-72
2022/04/26 04:13:45;;;;;;;4.13;1.70;;;;;;;10.60;57.85;94526.13;5134105;27;20031;-73
2022/04/26 04:16:10;;;;;;;6.45;1.73;;;;;;;10.79;57.25;94527.94;5132988;27;20549;-72
2022/04/26 04:21:20;;;;;;;5.70;2.03;;;;;;;11.21;56.20;94516.47;5131678;27;20172;-72
2022/04/26 04:23:45;;;;;;;4.20;1.80;;;;;;;11.51;55.38;94526.69;5133003;27;20027;-73
2022/04/26 04:26:10;;;;;;;3.58;1.40;;;;;;;11.94;54.01;94537.56;5131886;27;20023;-73
2022/04/26 04:28:36;;;;;;;3.00;1.50;;;;;;;12.39;52.58;94542.03;5128307;27;20015;-73
2022/04/26 04:31:01;;;;;;;3.92;1.58;;;;;;;12.63;51.98;94544.13;5132102;27;20023;-73
2022/04/26 04:33:27;;;;;;;3.53;1.80;;;;;;;13.05;50.91;94538.34;5132174;27;20024;-73
2022/04/26 04:35:52;;;;;;;5.53;2.05;;;;;;;13.33;50.35;94541.75;5112783;27;20073;-73
2022/04/26 04:38:18;;;;;;;5.47;1.75;;;;;;;13.66;49.45;94548.03;5131174;27;20035;-73
2022/04/26 04:40:43;;;;;;;3.38;1.50;;;;;;;13.94;48.96;94545.28;5134465;27;20477;-73
2022/04/26 04:43:11;;;;;;;7.60;1.70;;;;;;;14.22;48.19;94546.75;5131797;27;20023;-73
2022/04/26 04:45:37;;;;;;;4.43;1.65;;;;;;;14.83;46.82;94551.91;5115497;27;20054;-73
2022/04/26 04:48:05;;;;;;;4.57;1.52;;;;;;;15.39;45.69;94553.00;5134003;27;20034;-73
2022/04/26 04:50:33;;;;;;;5.10;1.70;;;;;;;15.94;44.51;94554.16;5114837;27;20027;-73
2022/04/26 04:52:59;;;;;;;4.60;1.45;;;;;;;16.52;43.71;94555.66;5133743;27;20102;-73
2022/04/26 04:55:24;;;;;;;4.60;1.52;;;;;;;17.08;42.45;94563.47;5115610;27;20110;-74
2022/04/26 04:57:50;;;;;;;2.97;1.50;;;;;;;17.57;41.00;94561.28;5132426;27;20088;-73
2022/04/26 05:00:16;;;;;;;5.38;1.70;;;;;;;17.92;39.50;94559.09;5130910;27;20552;-73
2022/04/26 05:02:41;;;;;;;4.10;1.40;;;;;;;18.28;39.08;94559.22;5133590;27;20038;-73
2022/04/26 05:05:07;;;;;;;5.63;1.80;;;;;;;18.43;39.43;94561.84;5133781;27;20051;-73
2022/04/26 05:07:33;;;;;;;6.72;1.55;;;;;;;18.45;38.47;94561.69;5128797;27;20027;-73
2022/04/26 05:09:58;;;;;;;3.70;1.60;;;;;;;18.42;39.00;94562.84;5131789;27;20035;-73
2022/04/26 05:12:24;;;;;;;6.93;1.75;;;;;;;18.39;39.01;94570.31;5133507;27;20027;-73
2022/04/26 05:14:49;;;;;;;3.17;1.50;;;;;;;18.14;40.13;94562.66;5132323;27;20700;-73
2022/04/26 05:17:14;;;;;;;4.45;1.67;;;;;;;18.06;40.13;94554.84;5132474;27;20489;-73
2022/04/26 05:19:40;;;;;;;4.75;1.40;;;;;;;18.23;40.10;94571.28;5133425;27;20031;-73
2022/04/26 05:22:09;;;;;;;4.25;1.40;;;;;;;18.27;40.16;94565.47;5131805;27;20023;-73
2022/04/26 05:24:53;;;;;;;3.95;1.50;;;;;;;18.12;40.40;94558.56;5130556;27;20116;-73
2022/04/26 05:27:20;;;;;;;7.00;1.60;;;;;;;18.16;41.15;94560.66;5114941;27;20023;-73
2022/04/26 05:29:45;;;;;;;3.88;1.40;;;;;;;18.23;41.17;94560.75;5133378;27;20047;-73
2022/04/26 05:32:10;;;;;;;5.30;1.40;;;;;;;18.35;40.06;94558.50;5132213;27;20027;-73
2022/04/26 05:34:36;;;;;;;3.83;1.40;;;;;;;18.31;41.24;94556.22;5131759;27;20454;-73
2022/04/26 05:37:01;;;;;;;3.70;1.55;;;;;;;18.42;40.66;94552.34;5132928;27;20030;-73
2022/04/26 05:39:27;;;;;;;4.38;1.40;;;;;;;18.56;40.01;94566.50;5131382;27;20054;-73
2022/04/26 05:41:52;;;;;;;5.72;1.60;;;;;;;18.50;40.47;94561.97;5128849;27;20034;-73
2022/04/26 05:44:17;;;;;;;5.47;1.70;;;;;;;18.45;39.59;94556.41;5095597;27;20035;-73
2022/04/26 05:46:43;;;;;;;2.78;1.60;;;;;;;18.42;40.00;94567.31;5129080;27;20027;-73
2022/04/26 05:49:08;;;;;;;5.72;1.50;;;;;;;18.41;40.62;94573.53;5128932;27;20444;-73
2022/04/26 05:51:34;;;;;;;7.43;1.60;;;;;;;18.50;40.69;94570.66;5128709;27;20072;-73
2022/04/26 05:53:59;;;;;;;8.63;2.40;;;;;;;18.52;40.05;94575.72;5132666;27;20023;-73
2022/04/26 05:56:25;;;;;;;6.18;2.17;;;;;;;18.52;39.40;94570.47;5129792;27;20404;-73
2022/04/26 05:58:50;;;;;;;7.20;2.28;;;;;;;18.50;38.97;94572.47;5130494;27;20052;-73
2022/04/26 06:01:15;;;;;;;5.03;1.65;;;;;;;18.47;39.16;94573.66;5131506;27;20011;-72
2022/04/26 06:03:41;;;;;;;4.82;2.00;;;;;;;18.56;38.71;94568.31;5131409;27;20042;-73
2022/04/26 06:06:06;;;;;;;5.70;1.90;;;;;;;18.67;37.99;94568.66;5130944;27;20756;-73
2022/04/26 06:08:32;;;;;;;7.50;1.73;;;;;;;18.67;39.05;94565.22;5127151;27;20026;-73
2022/04/26 06:10:57;;;;;;;5.10;1.77;;;;;;;18.68;37.96;94564.22;5125688;27;20027;-73
2022/04/26 06:13:23;;;;;;;4.25;1.80;;;;;;;18.65;37.78;94564.56;5130265;27;20015;-74
2022/04/26 06:15:48;;;;;;;6.43;2.40;;;;;;;18.62;38.21;94560.50;5128428;27;20116;-73
2022/04/26 06:18:14;;;;;;;10.18;4.18;;;;;;;18.68;38.48;94566.84;5129768;27;20022;-74
2022/04/26 06:20:39;;;;;;;10.95;3.55;;;;;;;18.71;39.19;94559.38;5131059;27;20054;-74
2022/04/26 06:23:05;;;;;;;7.80;3.88;;;;;;;18.74;38.88;94558.25;5128135;27;20118;-72
2022/04/26 06:25:33;;;;;;;9.82;2.33;;;;;;;18.80;39.12;94551.44;5127213;27;20039;-72
2022/04/26 06:28:09;;;;;;;10.30;2.33;;;;;;;18.92;38.70;94558.69;5108688;27;20027;-73
2022/04/26 06:30:38;;;;;;;13.75;2.42;;;;;;;18.87;38.31;94554.97;5127275;27;20023;-73
2022/04/26 06:33:04;;;;;;;10.23;2.60;;;;;;;18.93;38.61;94556.84;5124013;27;20508;-73
2022/04/26 06:35:30;;;;;;;8.18;2.47;;;;;;;19.05;38.74;94560.63;5121959;27;20519;-73
2022/04/26 06:37:55;;;;;;;5.95;2.10;;;;;;;19.08;38.73;94546.28;5112040;27;20040;-72
2022/04/26 06:40:21;;;;;;;7.05;2.00;;;;;;;19.13;38.20;94554.44;5122144;27;20096;-72
2022/04/26 06:42:46;;;;;;;9.07;2.40;;;;;;;19.04;38.28;94532.69;5131877;27;20031;-72
2022/04/26 06:45:11;;;;;;;11.18;2.20;;;;;;;19.14;38.64;94551.63;5118309;27;20034;-72
2022/04/26 06:47:37;;;;;;;6.32;2.67;;;;;;;19.20;38.35;94550.09;5119747;27;20019;-72
2022/04/26 06:50:03;;;;;;;11.45;2.60;;;;;;;19.36;38.58;94551.66;5122529;27;20020;-73
2022/04/26 06:52:28;;;;;;;8.63;2.22;;;;;;;19.46;38.24;94541.63;5105773;27;20114;-72
2022/04/26 06:54:54;;;;;;;10.98;2.63;;;;;;;19.66;37.57;94549.75;5115247;27;20039;-73
2022/04/26 06:57:19;;;;;;;10.13;2.33;;;;;;;19.68;37.17;94534.56;5119218;27;20056;-74
2022/04/26 06:59:45;;;;;;;4.22;2.22;;;;;;;19.75;36.38;94539.88;5130256;27;20028;-72
2022/04/26 07:02:10;;;;;;;12.35;2.20;;;;;;;19.71;36.40;94536.00;5107556;28;20056;-72
2022/04/26 07:04:36;;;;;;;5.72;2.40;;;;;;;19.66;36.53;94538.38;5118455;27;20087;-73
2022/04/26 07:07:01;;;;;;;13.70;2.35;;;;;;;19.63;36.80;94535.09;5125971;27;20492;-73
2022/04/26 07:09:27;;;;;;;5.88;1.90;;;;;;;19.58;35.88;94529.56;5106875;28;20027;-73
2022/04/26 07:11:53;;;;;;;4.25;1.90;;;;;;;19.51;35.63;94533.97;5129347;28;20076;-73
2022/04/26 07:14:18;;;;;;;3.38;1.50;;;;;;;19.50;34.86;94536.78;5117825;27;20044;-72
2022/04/26 07:16:48;;;;;;;8.25;1.50;;;;;;;19.64;34.91;94526.19;5116949;28;20031;-72
2022/04/26 07:19:14;;;;;;;5.32;1.80;;;;;;;19.75;34.48;94524.91;5119439;28;20106;-72
2022/04/26 07:21:44;;;;;;;4.97;1.48;;;;;;;19.75;34.64;94532.81;5124906;27;20127;-73
2022/04/26 07:24:10;;;;;;;5.47;1.40;;;;;;;19.93;34.15;94534.97;5113050;28;20046;-74
2022/04/26 07:26:35;;;;;;;8.38;2.28;;;;;;;20.02;34.28;94531.16;5089186;28;20489;-73
2022/04/26 07:29:01;;;;;;;4.53;1.40;;;;;;;20.20;33.68;94535.97;5127832;28;20038;-73
2022/04/26 07:31:26;;;;;;;4.28;1.50;;;;;;;20.22;34.12;94538.41;5129446;27;20019;-74
2022/04/26 07:36:36;;;;;;;6.32;1.75;;;;;;;20.29;33.08;94534.00;5121352;28;20046;-73
2022/04/26 07:39:02;;;;;;;4.20;1.35;;;;;;;20.36;33.05;94540.13;5103700;28;20019;-74
2022/04/26 07:41:27;;;;;;;4.28;1.63;;;;;;;20.43;33.77;94535.72;5118931;28;20095;-73
2022/04/26 07:43:54;;;;;;;5.63;1.88;;;;;;;20.47;33.20;94534.28;5128500;27;20084;-73
2022/04/26 07:46:20;;;;;;;4.30;1.50;;;;;;;20.53;33.60;94528.28;5128326;28;20127;-73
2022/04/26 07:48:45;;;;;;;5.53;1.70;;;;;;;20.68;33.00;94530.78;5127653;28;20027;-72
2022/04/26 07:51:11;;;;;;;5.57;2.05;;;;;;;20.76;32.82;94532.47;5123616;28;20019;-73
2022/04/26 07:53:37;;;;;;;9.40;7.28;;;;;;;20.75;33.22;94530.81;5128243;27;20023;-73
2022/04/26 07:56:02;;;;;;;7.13;3.30;;;;;;;20.83;33.13;94537.75;5126391;28;20063;-73
2022/04/26 07:58:29;;;;;;;5.80;1.70;;;;;;;20.81;32.17;94531.84;5119217;28;20036;-72
2022/04/26 08:00:54;;;;;;;3.67;1.60;;;;;;;20.74;32.37;94524.72;5122242;27;20031;-73
2022/04/26 08:03:20;;;;;;;8.65;3.78;;;;;;;20.88;33.26;94528.22;5094595;28;20027;-73
2022/04/26 08:05:46;;;;;;;9.40;3.45;;;;;;;21.00;32.38;94538.22;5126125;27;20042;-73
2022/04/26 08:08:21;;;;;;;6.57;3.40;;;;;;;20.98;32.52;94533.97;5114881;28;20551;-73
2022/04/26 08:10:46;;;;;;;9.43;1.92;;;;;;;21.09;32.62;94532.59;5123483;27;20507;-73
2022/04/26 08:13:11;;;;;;;5.80;1.60;;;;;;;21.14;32.82;94529.31;5100353;27;20022;-73
2022/04/26 08:15:37;;;;;;;11.30;1.83;;;;;;;21.20;32.83;94525.88;5114940;27;20066;-73
2022/04/26 08:18:02;;;;;;;6.78;1.95;;;;;;;21.21;32.65;94524.88;5111091;28;20031;-76
2022/04/26 08:20:28;;;;;;;22.45;10.00;;;;;;;21.27;33.96;94518.00;5125962;27;20058;-72
2022/04/26 08:22:53;;;;;;;20.35;12.52;;;;;;;21.35;33.26;94518.63;5131939;27;20031;-73
2022/04/26 08:28:03;;;;;;;14.70;6.40;;;;;;;21.46;33.18;94519.09;5132996;27;20038;-72
2022/04/26 08:30:28;;;;;;;7.45;3.30;;;;;;;21.50;33.98;94517.66;5115238;27;20039;-73
2022/04/26 08:32:54;;;;;;;16.70;3.00;;;;;;;21.52;33.89;94508.50;5114701;27;20034;-73
2022/04/26 08:35:22;;;;;;;9.68;2.47;;;;;;;21.67;34.56;94515.44;5114209;27;20031;-73
2022/04/26 08:37:48;;;;;;;14.45;3.22;;;;;;;21.63;33.59;94521.13;5132848;27;20411;-73
2022/04/26 08:40:13;;;;;;;8.95;2.20;;;;;;;21.61;34.06;94509.13;5129350;27;20039;-73
2022/04/26 08:42:44;;;;;;;8.65;2.28;;;;;;;21.67;34.37;94518.88;5133074;27;20058;-72
2022/04/26 08:45:10;;;;;;;;;;;;;;;21.48;34.14;94515.22;5113142;27;20039;-73
2022/04/26 08:53:04;;;;;;;6.80;2.30;;;;;;;21.38;34.41;94512.97;5132896;27;20051;-72
2022/04/26 08:55:31;;;;;;;15.10;5.90;;;;;;;21.52;34.13;94521.72;5129490;27;20036;-72
2022/04/26 08:57:57;;;;;;;14.70;6.30;;;;;;;21.58;34.39;94510.34;5133834;27;20027;-73
2022/04/26 09:00:22;;;;;;;12.23;2.72;;;;;;;21.69;33.72;94526.63;5132127;27;20543;-73
2022/04/26 09:03:00;;;;;;;9.20;2.03;;;;;;;21.80;33.21;94513.59;5132143;27;20030;-73
2022/04/26 09:05:25;;;;;;;7.57;2.20;;;;;;;21.79;33.96;94506.69;5130876;27;20046;-72
2022/04/26 09:07:51;;;;;;;7.70;2.25;;;;;;;21.71;34.06;94512.19;5132093;27;20027;-73
2022/04/26 09:10:18;;;;;;;8.65;2.40;;;;;;;21.70;34.16;94515.84;5111632;28;20036;-73
2022/04/26 09:13:10;;;;;;;13.02;4.65;;;;;;;21.69;34.07;94502.84;5119496;27;20035;-73
2022/04/26 09:15:52;;;;;;;11.85;2.58;;;;;;;21.72;34.25;94505.06;5130776;27;20119;-73
2022/04/26 09:18:29;;;;;;;11.32;2.30;;;;;;;21.77;34.89;94494.69;5113792;27;20023;-73
2022/04/26 09:20:55;;;;;;;9.85;2.08;;;;;;;21.79;34.41;94501.41;5132897;27;20031;-73
2022/04/26 09:23:28;;;;;;;13.43;3.17;;;;;;;21.67;33.75;94502.22;5132967;27;20024;-72
2022/04/26 09:26:16;;;;;;;9.80;2.65;;;;;;;21.66;34.36;94501.41;5129439;27;20083;-73
2022/04/26 09:28:46;;;;;;;9.27;2.20;;;;;;;21.51;33.82;94495.53;5131692;27;20469;-73
2022/04/26 09:31:21;;;;;;;7.97;2.40;;;;;;;21.37;34.72;94500.78;5109666;28;20496;-72
2022/04/26 09:33:47;;;;;;;9.20;2.40;;;;;;;21.37;34.15;94492.84;5112088;28;20084;-73
2022/04/26 09:36:14;;;;;;;10.52;2.28;;;;;;;21.45;34.80;94483.09;5129626;27;20039;-72
2022/04/26 09:39:00;;;;;;;7.93;2.17;;;;;;;21.61;34.77;94490.63;5133169;27;20401;-72
2022/04/26 09:41:26;;;;;;;9.77;2.17;;;;;;;21.71;34.45;94491.03;5120272;27;20425;-73
2022/04/26 09:43:56;;;;;;;9.18;2.20;;;;;;;21.86;34.28;94475.78;5130876;27;20110;-73
2022/04/26 09:46:21;;;;;;;9.80;2.17;;;;;;;21.99;34.43;94479.44;5129891;27;20027;-73
2022/04/26 09:48:47;;;;;;;8.15;2.30;;;;;;;22.04;34.26;94466.41;5132573;27;20428;-73
2022/04/26 09:51:12;;;;;;;12.43;2.58;;;;;;;22.25;33.84;94468.81;5132044;27;20023;-73
2022/04/26 09:53:37;;;;;;;9.57;2.40;;;;;;;22.33;33.90;94474.94;5129708;27;20030;-73
2022/04/26 09:56:04;;;;;;;8.93;2.25;;;;;;;22.34;33.02;94463.31;5129714;27;20023;-73
2022/04/26 09:58:29;;;;;;;10.43;2.65;;;;;;;22.35;33.27;94473.69;5112971;27;20412;-73
2022/04/26 10:01:00;;;;;;;10.15;2.67;;;;;;;22.30;32.99;94469.03;5130052;27;20063;-74
2022/04/26 10:03:34;;;;;;;14.23;3.97;;;;;;;22.30;32.47;94466.38;5119050;27;20037;-73
2022/04/26 10:06:02;;;;;;;8.75;2.80;;;;;;;22.28;32.87;94465.75;5130040;27;20042;-73
2022/04/26 10:08:29;;;;;;;14.10;2.75;;;;;;;22.38;32.69;94465.34;5130955;27;20119;-73
2022/04/26 10:10:55;;;;;;;10.52;2.47;;;;;;;22.43;33.10;94456.78;5129492;27;20035;-73
2022/04/26 10:13:32;;;;;;;8.05;2.55;;;;;;;22.53;33.36;94454.50;5109245;27;20515;-73
2022/04/26 10:16:08;;;;;;;10.02;2.50;;;;;;;22.61;33.65;94461.41;5127497;27;20166;-73
2022/04/26 10:18:38;;;;;;;10.52;2.90;;;;;;;22.62;32.79;94458.56;5131254;27;20023;-73
2022/04/26 10:21:04;;;;;;;8.30;2.00;;;;;;;22.67;31.95;94461.34;5130093;27;20484;-73
2022/04/26 10:23:56;;;;;;;14.68;2.55;;;;;;;22.50;31.88;94452.28;5131092;27;20024;-73
2022/04/26 10:26:24;;;;;;;9.00;2.15;;;;;;;22.28;32.00;94457.03;5124367;27;20504;-73
2022/04/26 10:28:53;;;;;;;11.60;2.60;;;;;;;22.27;31.72;94455.41;5096647;27;20087;-73
2022/04/26 10:31:19;;;;;;;10.73;2.42;;;;;;;22.29;31.70;94454.19;5116903;27;20038;-73
2022/04/26 10:33:47;;;;;;;10.20;2.40;;;;;;;22.20;31.32;94444.81;5112567;27;20028;-73
2022/04/26 10:36:31;;;;;;;6.70;1.85;;;;;;;22.20;31.43;94444.81;5128127;27;20076;-73
2022/04/26 10:39:05;;;;;;;4.57;2.03;;;;;;;22.17;31.82;94445.22;5130645;27;20522;-73
2022/04/26 10:41:44;;;;;;;10.23;2.22;;;;;;;22.11;31.95;94437.31;5125082;27;20042;-73
2022/04/26 10:46:52;;;;;;;10.23;2.30;;;;;;;22.15;32.99;94436.69;5119756;27;20157;-73
2022/04/26 10:49:40;;;;;;;12.48;2.75;;;;;;;22.08;34.16;94435.88;5112069;27;20058;-73
2022/04/26 10:52:17;;;;;;;8.77;2.38;;;;;;;22.25;33.93;94437.09;5123823;27;20039;-73
2022/04/26 10:54:45;;;;;;;9.88;2.47;;;;;;;22.39;33.39;94434.41;5128720;27;20428;-73
2022/04/26 10:57:18;;;;;;;8.45;2.50;;;;;;;22.44;33.25;94435.41;5131052;27;20540;-73
2022/04/26 10:59:44;;;;;;;10.02;2.38;;;;;;;22.51;33.34;94440.66;5130962;27;20385;-73
2022/04/26 11:02:12;;;;;;;7.28;2.53;;;;;;;22.49;32.82;94438.22;5103022;28;20484;-73
2022/04/26 11:04:37;;;;;;;8.00;2.35;;;;;;;22.46;33.00;94432.56;5114672;27;20037;-73
2022/04/26 11:07:12;;;;;;;9.65;2.38;;;;;;;22.45;33.25;94430.91;5128283;27;20027;-73
2022/04/26 11:09:44;;;;;;;17.35;2.60;;;;;;;22.41;33.71;94427.06;5131660;27;20131;-73
2022/04/26 11:12:09;;;;;;;6.60;2.60;;;;;;;22.47;36.48;94431.53;5127431;28;20027;-73
2022/04/26 11:14:40;;;;;;;9.82;2.40;;;;;;;22.48;36.06;94425.19;5130030;27;20054;-73
2022/04/26 11:17:06;;;;;;;9.35;3.17;;;;;;;22.49;35.56;94427.66;5130059;27;20023;-73
2022/04/26 11:19:34;;;;;;;9.43;4.20;;;;;;;22.41;35.72;94425.22;5130824;27;20087;-73
2022/04/26 11:22:07;;;;;;;9.57;2.40;;;;;;;22.37;32.68;94425.84;5106464;28;20063;-73
2022/04/26 11:30:01;;;;;;;8.52;2.50;;;;;;;22.12;36.72;94446.84;5129529;28;20042;-73
2022/04/26 11:32:30;;;;;;;7.88;2.78;;;;;;;22.04;38.88;94455.84;5099869;28;20433;-73
2022/04/26 11:34:56;;;;;;;15.88;2.85;;;;;;;22.02;39.86;94468.44;5119959;27;20429;-73
2022/04/26 11:37:22;;;;;;;9.27;2.70;;;;;;;21.72;38.29;94437.16;5094838;28;20036;-73
2022/04/26 11:39:47;;;;;;;10.52;4.93;;;;;;;21.53;34.99;94465.19;5121803;28;20027;-72
2022/04/26 11:42:12;;;;;;;9.65;3.35;;;;;;;21.26;36.14;94464.38;5121121;27;20420;-72
2022/04/26 11:44:57;;;;;;;10.32;4.38;;;;;;;20.92;33.58;94466.13;5099641;28;20115;-74
2022/04/26 11:47:43;;;;;;;7.13;3.30;;;;;;;20.69;41.27;94465.63;5132216;27;20035;-73
2022/04/26 11:50:25;;;;;;;4.43;1.67;;;;;;;19.83;38.36;94421.97;5133483;27;20043;-73
2022/04/26 11:52:53;;;;;;;5.57;2.00;;;;;;;19.74;40.91;94422.31;5115685;27;20023;-74
2022/04/26 11:55:26;;;;;;;8.32;1.67;;;;;;;19.75;42.81;94419.50;5132179;27;20518;-74
2022/04/26 11:57:53;;;;;;;8.00;1.90;;;;;;;19.64;47.69;94397.09;5094790;28;20019;-74
2022/04/26 12:00:20;;;;;;;7.88;2.28;;;;;;;19.68;51.93;94412.56;5124841;27;20037;-73
2022/04/26 12:02:47;;;;;;;5.55;2.08;;;;;;;19.52;49.76;94403.88;5132094;27;20024;-73
2022/04/26 12:05:13;;;;;;;4.38;1.92;;;;;;;19.33;49.74;94388.75;5132579;27;20050;-74
2022/04/26 12:07:38;;;;;;;3.28;2.00;;;;;;;19.31;55.01;94402.13;5115142;27;20039;-74
2022/04/26 12:10:23;;;;;;;5.43;1.95;;;;;;;19.29;49.38;94398.06;5134159;27;20065;-74
2022/04/26 12:13:05;;;;;;;5.25;1.92;;;;;;;19.46;48.91;94399.41;5118653;27;20478;-74
2022/04/26 12:15:32;;;;;;;8.10;2.03;;;;;;;19.54;47.48;94399.25;5127416;27;20043;-74
2022/04/26 12:18:06;;;;;;;5.60;1.92;;;;;;;19.68;44.58;94399.38;5098568;27;20020;-74
2022/04/26 12:20:32;;;;;;;6.43;1.90;;;;;;;19.79;42.84;94404.91;5112754;27;20043;-74
2022/04/26 12:22:57;;;;;;;5.82;1.98;;;;;;;19.88;44.55;94402.13;5132993;27;20420;-74
2022/04/26 12:25:23;;;;;;;3.95;1.75;;;;;;;19.99;45.92;94401.59;5112864;27;20038;-74
2022/04/26 12:28:07;;;;;;;5.57;2.13;;;;;;;19.96;44.72;94405.41;5116326;27;20054;-74
2022/04/26 12:30:39;;;;;;;3.92;1.90;;;;;;;20.08;44.42;94413.59;5131537;27;20038;-74
2022/04/26 12:33:07;;;;;;;5.82;1.90;;;;;;;20.14;49.21;94412.81;5116136;27;20039;-74
2022/04/26 12:35:32;;;;;;;7.53;1.90;;;;;;;20.12;46.25;94408.75;5132700;27;20023;-74
2022/04/26 12:38:05;;;;;;;6.35;2.00;;;;;;;20.15;44.25;94419.72;5131946;27;20515;-74
2022/04/26 12:40:31;;;;;;;6.15;1.85;;;;;;;20.18;43.75;94413.25;5125631;27;20038;-74
2022/04/26 12:42:57;;;;;;;7.55;2.30;;;;;;;20.18;42.57;94415.88;5130682;27;20084;-74
2022/04/26 12:45:23;;;;;;;9.73;2.30;;;;;;;20.15;42.52;94416.28;5129656;27;20138;-74
2022/04/26 12:50:53;;;;;;;7.88;2.50;;;;;;;19.95;40.58;94395.91;5101713;28;20050;-74
2022/04/26 12:53:28;;;;;;;7.65;2.05;;;;;;;19.92;39.45;94393.66;5128344;27;20031;-74
2022/04/26 12:55:54;;;;;;;6.47;1.90;;;;;;;19.94;40.29;94411.91;5101831;28;20092;-73
2022/04/26 12:58:40;;;;;;;7.05;2.20;;;;;;;19.84;39.84;94404.34;5112082;27;20020;-73
2022/04/26 13:01:06;;;;;;;7.95;2.40;;;;;;;19.92;39.55;94408.63;5132587;27;20065;-73
2022/04/26 13:03:32;;;;;;;7.28;1.90;;;;;;;19.94;39.23;94404.78;5132652;27;20095;-74
2022/04/26 13:06:08;;;;;;;5.72;2.20;;;;;;;19.99;38.04;94393.69;5130681;27;20488;-74
2022/04/26 13:08:33;;;;;;;6.22;1.70;;;;;;;20.07;37.96;94398.78;5106175;27;20023;-74
2022/04/26 13:11:00;;;;;;;5.18;1.70;;;;;;;20.17;37.29;94401.88;5093913;27;20027;-74
2022/04/26 13:13:27;;;;;;;3.47;1.60;;;;;;;20.25;37.40;94401.72;5131505;27;20027;-73
2022/04/26 13:15:52;;;;;;;7.97;1.70;;;;;;;20.42;35.68;94394.28;5129261;27;20047;-74
2022/04/26 13:18:18;;;;;;;5.97;1.70;;;;;;;20.47;36.18;94396.31;5115081;27;20428;-74
2022/04/26 13:20:47;;;;;;;5.25;1.70;;;;;;;20.56;38.27;94408.38;5132003;27;20038;-74
2022/04/26 13:23:13;;;;;;;8.55;1.80;;;;;;;20.50;38.99;94406.47;5105176;27;20027;-74
2022/04/26 13:25:38;;;;;;;8.98;2.33;;;;;;;20.25;39.59;94393.81;5131788;27;20039;-74
2022/04/26 13:28:04;;;;;;;6.78;1.70;;;;;;;20.07;40.68;94418.06;5127640;27;20541;-72
2022/04/26 13:30:30;;;;;;;5.40;1.60;;;;;;;19.86;42.33;94426.03;5118836;27;20041;-73
2022/04/26 13:32:55;;;;;;;7.88;2.13;;;;;;;19.61;41.52;94423.00;5113070;27;20035;-73
2022/04/26 13:35:21;;;;;;;7.70;1.90;;;;;;;19.32;42.43;94427.44;5116930;27;20035;-73
2022/04/26 13:37:47;;;;;;;7.97;1.77;;;;;;;18.90;43.36;94408.03;5129224;27;20084;-73
2022/04/26 13:40:12;;;;;;;5.00;1.90;;;;;;;18.68;44.25;94409.81;5131055;27;20035;-73
2022/04/26 13:42:38;;;;;;;7.78;2.08;;;;;;;18.54;45.36;94415.94;5133340;27;20026;-73
2022/04/26 13:45:04;;;;;;;7.13;1.80;;;;;;;18.46;46.21;94418.66;5132284;27;20042;-74
2022/04/26 13:47:30;;;;;;;2.90;1.92;;;;;;;18.37;47.22;94404.00;5132035;27;20023;-73
2022/04/26 13:49:56;;;;;;;5.90;1.70;;;;;;;18.33;47.60;94402.72;5131796;27;20066;-73
2022/04/26 13:52:21;;;;;;;4.57;1.77;;;;;;;18.34;47.20;94393.88;5132862;27;20015;-74
2022/04/26 13:54:47;;;;;;;6.93;1.65;;;;;;;18.34;45.61;94378.91;5131807;27;20507;-72
2022/04/26 13:57:12;;;;;;;5.90;1.98;;;;;;;18.35;45.98;94390.22;5115004;27;20031;-73
2022/04/26 13:59:38;;;;;;;6.32;1.90;;;;;;;18.08;47.12;94379.41;5133209;27;20027;-74
2022/04/26 14:02:04;;;;;;;7.18;1.80;;;;;;;18.01;47.57;94378.50;5113715;27;20091;-74
2022/04/26 14:04:30;;;;;;;3.90;1.80;;;;;;;17.81;46.96;94386.94;5084217;28;20028;-74
2022/04/26 14:06:55;;;;;;;2.47;1.63;;;;;;;17.66;46.59;94383.44;5128738;27;20095;-74
2022/04/26 14:09:22;;;;;;;7.53;2.03;;;;;;;17.63;47.04;94394.31;5128566;27;20084;-73
2022/04/26 14:11:47;;;;;;;4.78;2.25;;;;;;;17.52;47.86;94392.94;5097673;28;20110;-74
2022/04/26 14:22:30;;;;;;;5.28;1.90;;;;;;;17.64;48.04;94422.22;5104584;27;20081;-76
2022/04/26 14:24:58;;;;;;;4.75;1.92;;;;;;;17.69;47.71;94422.50;5116520;27;20046;-76
2022/04/26 14:27:24;;;;;;;6.18;2.10;;;;;;;17.72;47.35;94432.66;5117058;27;20107;-77
2022/04/26 14:29:50;;;;;;;5.82;1.75;;;;;;;17.60;45.98;94426.19;5113873;27;20059;-77
2022/04/26 14:32:15;;;;;;;5.30;1.75;;;;;;;17.67;46.61;94456.00;5122767;27;20551;-76
2022/04/26 14:34:42;;;;;;;5.18;2.80;;;;;;;17.60;47.21;94455.09;5115384;27;20061;-77
2022/04/26 14:37:09;;;;;;;7.20;2.50;;;;;;;17.53;46.96;94459.44;5106968;27;20051;-76
2022/04/26 14:39:36;;;;;;;5.43;2.10;;;;;;;17.41;47.36;94457.22;5131514;27;20106;-75
2022/04/26 14:42:03;;;;;;;7.38;2.20;;;;;;;17.52;47.72;94478.78;5125129;27;20490;-77
2022/04/26 14:44:28;;;;;;;7.68;3.00;;;;;;;17.53;48.01;94475.19;5125026;27;20023;-75
2022/04/26 14:46:54;;;;;;;9.63;2.97;;;;;;;17.52;48.18;94478.78;5131925;27;20031;-81
2022/04/26 14:49:19;;;;;;;7.05;2.60;;;;;;;17.57;48.74;94484.31;5132030;27;20428;-79
2022/04/26 14:51:45;;;;;;;10.40;3.67;;;;;;;17.63;48.80;94507.25;5120996;27;20088;-76
2022/04/26 14:54:11;;;;;;;6.72;2.80;;;;;;;17.65;50.04;94502.66;5114350;27;20083;-76
2022/04/26 14:56:37;;;;;;;8.60;3.83;;;;;;;17.61;51.41;94510.06;5125448;27;20019;-77
2022/04/26 14:59:03;;;;;;;19.65;2.97;;;;;;;17.68;52.56;94523.28;5128483;27;20043;-76
2022/04/26 15:01:30;;;;;;;6.18;3.17;;;;;;;17.61;51.27;94530.28;5106916;28;20080;-75
2022/04/26 15:03:58;;;;;;;8.50;3.83;;;;;;;17.61;51.38;94540.78;5121014;27;20110;-76
2022/04/26 15:06:24;;;;;;;17.38;3.35;;;;;;;17.64;54.03;94549.09;5106845;28;20030;-75
2022/04/26 15:11:34;;;;;;;11.30;2.80;;;;;;;17.40;55.34;94560.59;5120596;28;20110;-75
2022/04/26 15:16:46;;;;;;;14.73;4.32;;;;;;;17.17;61.47;94599.16;5127111;28;20030;-76
2022/04/26 15:19:13;;;;;;;21.45;4.35;;;;;;;16.97;62.82;94594.34;5130835;28;20062;-75
2022/04/26 15:21:39;;;;;;;7.40;3.05;;;;;;;16.79;63.46;94588.50;5117244;27;20398;-78
2022/04/26 15:24:05;;;;;;;8.55;2.72;;;;;;;16.58;64.19;94581.19;5098430;28;20040;-77
2022/04/26 15:26:31;;;;;;;6.50;2.65;;;;;;;16.49;61.54;94592.66;5114092;28;20023;-79
2022/04/26 15:28:57;;;;;;;6.25;2.70;;;;;;;16.28;62.39;94607.16;5114502;28;20139;-78
2022/04/26 15:31:23;;;;;;;8.05;2.50;;;;;;;16.16;64.47;94607.66;5116616;27;20114;-76
2022/04/26 15:33:49;;;;;;;6.70;2.40;;;;;;;16.03;62.36;94598.50;5130795;27;20114;-76
2022/04/26 15:36:15;;;;;;;6.28;2.15;;;;;;;15.87;63.27;94588.03;5129170;27;20024;-75
2022/04/26 15:38:40;;;;;;;7.20;2.20;;;;;;;15.83;66.61;94591.97;5123646;27;20514;-75
2022/04/26 15:41:06;;;;;;;5.70;2.72;;;;;;;15.83;67.68;94592.78;5133482;27;20035;-75
2022/04/26 15:43:38;;;;;;;4.47;1.92;;;;;;;15.80;67.92;94585.25;5116590;27;20023;-75
2022/04/26 15:46:05;;;;;;;6.43;2.15;;;;;;;15.78;67.95;94591.66;5121266;27;20023;-76
2022/04/26 15:48:31;;;;;;;7.68;2.83;;;;;;;15.75;67.73;94590.16;5117534;27;20023;-75